sensor_id;sensor_type;location;lat;lon;timestamp;temperature;humidity
6174;DHT22;3120;48.796;9.796;2023-03-24T00:00:16;12.60;99.90
6174;DHT22;3120;48.796;9.796;2023-03-24T00:02:42;12.60;99.90
6174;DHT22;3120;48.796;9.796;2023-03-24T00:05:10;12.50;99.90
6174;DHT22;3120;48.796;9.796;2023-03-24T00:07:37;12.50;99.90
6174;DHT22;3120;48.796;9.796;2023-03-24T00:10:08;12.60;99.90
6174;DHT22;3120;48.796;9.796;2023-03-24T00:12:35;12.50;99.90
6174;DHT22;3120;48.796;9.796;2023-03-24T00:15:05;12.50;99.90
6174;DHT22;3120;48.796;9.796;2023-03-24T00:17:32;12.50;99.90
6174;DHT22;3120;48.796;9.796;2023-03-24T00:20:12;12.50;99.90
6174;DHT22;3120;48.796;9.796;2023-03-24T00:22:51;12.50;99.90
6174;DHT22;3120;48.796;9.796;2023-03-24T00:25:22;12.50;99.90
6174;DHT22;3120;48.796;9.796;2023-03-24T00:27:49;12.40;99.90
6174;DHT22;3120;48.796;9.796;2023-03-24T00:30:17;12.40;99.90
6174;DHT22;3120;48.796;9.796;2023-03-24T00:32:43;12.30;99.90
6174;DHT22;3120;48.796;9.796;2023-03-24T00:35:12;12.30;99.90
6174;DHT22;3120;48.796;9.796;2023-03-24T00:37:39;12.30;99.90
6174;DHT22;3120;48.796;9.796;2023-03-24T00:40:08;12.30;99.90
6174;DHT22;3120;48.796;9.796;2023-03-24T00:42:37;12.30;99.90
6174;DHT22;3120;48.796;9.796;2023-03-24T00:45:05;12.20;99.90
6174;DHT22;3120;48.796;9.796;2023-03-24T00:47:32;12.20;99.90
6174;DHT22;3120;48.796;9.796;2023-03-24T00:50:02;12.20;99.90
6174;DHT22;3120;48.796;9.796;2023-03-24T00:52:28;12.20;99.90
6174;DHT22;3120;48.796;9.796;2023-03-24T00:54:59;12.20;99.90
6174;DHT22;3120;48.796;9.796;2023-03-24T00:57:27;12.20;99.90
6174;DHT22;3120;48.796;9.796;2023-03-24T00:59:55;12.20;99.90
6174;DHT22;3120;48.796;9.796;2023-03-24T01:02:24;12.20;99.90
6174;DHT22;3120;48.796;9.796;2023-03-24T01:04:53;12.20;99.90
6174;DHT22;3120;48.796;9.796;2023-03-24T01:07:20;12.20;99.90
6174;DHT22;3120;48.796;9.796;2023-03-24T01:09:46;12.20;99.90
6174;DHT22;3120;48.796;9.796;2023-03-24T01:12:32;12.10;99.90
6174;DHT22;3120;48.796;9.796;2023-03-24T01:15:00;12.10;99.90
6174;DHT22;3120;48.796;9.796;2023-03-24T01:17:27;12.10;99.90
6174;DHT22;3120;48.796;9.796;2023-03-24T01:19:54;12.00;99.90
6174;DHT22;3120;48.796;9.796;2023-03-24T01:22:20;12.10;99.90
6174;DHT22;3120;48.796;9.796;2023-03-24T01:24:49;12.10;99.90
6174;DHT22;3120;48.796;9.796;2023-03-24T01:27:15;12.10;99.90
6174;DHT22;3120;48.796;9.796;2023-03-24T01:29:41;12.10;99.90
6174;DHT22;3120;48.796;9.796;2023-03-24T01:32:07;12.00;99.90
6174;DHT22;3120;48.796;9.796;2023-03-24T01:34:33;12.10;99.90
6174;DHT22;3120;48.796;9.796;2023-03-24T01:37:00;12.00;99.90
6174;DHT22;3120;48.796;9.796;2023-03-24T01:39:26;12.00;99.90
6174;DHT22;3120;48.796;9.796;2023-03-24T01:41:52;11.90;99.90
6174;DHT22;3120;48.796;9.796;2023-03-24T01:44:33;11.90;99.90
6174;DHT22;3120;48.796;9.796;2023-03-24T01:47:00;11.90;99.90
6174;DHT22;3120;48.796;9.796;2023-03-24T01:49:30;11.90;99.90
6174;DHT22;3120;48.796;9.796;2023-03-24T01:52:00;11.90;99.90
6174;DHT22;3120;48.796;9.796;2023-03-24T01:54:33;11.80;99.90
6174;DHT22;3120;48.796;9.796;2023-03-24T01:57:09;11.90;99.90
6174;DHT22;3120;48.796;9.796;2023-03-24T01:59:39;11.80;99.90
6174;DHT22;3120;48.796;9.796;2023-03-24T02:02:05;11.90;99.90
6174;DHT22;3120;48.796;9.796;2023-03-24T02:04:38;11.80;99.90
6174;DHT22;3120;48.796;9.796;2023-03-24T02:07:15;11.90;99.90
6174;DHT22;3120;48.796;9.796;2023-03-24T02:09:43;11.80;99.90
6174;DHT22;3120;48.796;9.796;2023-03-24T02:12:09;11.80;99.90
6174;DHT22;3120;48.796;9.796;2023-03-24T02:14:35;11.90;99.90
6174;DHT22;3120;48.796;9.796;2023-03-24T02:20:06;11.90;99.90
6174;DHT22;3120;48.796;9.796;2023-03-24T02:44:40;12.00;99.90
6174;DHT22;3120;48.796;9.796;2023-03-24T02:47:23;11.90;99.90
6174;DHT22;3120;48.796;9.796;2023-03-24T02:52:48;11.90;99.90
6174;DHT22;3120;48.796;9.796;2023-03-24T02:55:22;12.00;99.90
6174;DHT22;3120;48.796;9.796;2023-03-24T02:57:51;11.90;99.90
6174;DHT22;3120;48.796;9.796;2023-03-24T03:03:39;11.90;99.90
6174;DHT22;3120;48.796;9.796;2023-03-24T03:06:43;11.90;99.90
6174;DHT22;3120;48.796;9.796;2023-03-24T03:08:50;11.90;99.90
6174;DHT22;3120;48.796;9.796;2023-03-24T03:11:16;11.90;99.90
6174;DHT22;3120;48.796;9.796;2023-03-24T03:16:22;11.90;99.90
6174;DHT22;3120;48.796;9.796;2023-03-24T03:19:02;11.90;99.90
6174;DHT22;3120;48.796;9.796;2023-03-24T03:21:36;11.90;99.90
6174;DHT22;3120;48.796;9.796;2023-03-24T03:24:17;11.90;99.90
6174;DHT22;3120;48.796;9.796;2023-03-24T03:26:46;11.90;99.90
6174;DHT22;3120;48.796;9.796;2023-03-24T03:29:19;11.90;99.90
6174;DHT22;3120;48.796;9.796;2023-03-24T03:31:58;11.90;99.90
6174;DHT22;3120;48.796;9.796;2023-03-24T03:39:55;11.90;99.90
6174;DHT22;3120;48.796;9.796;2023-03-24T03:42:21;11.90;99.90
6174;DHT22;3120;48.796;9.796;2023-03-24T03:44:47;11.90;99.90
6174;DHT22;3120;48.796;9.796;2023-03-24T03:47:13;12.00;99.90
6174;DHT22;3120;48.796;9.796;2023-03-24T03:49:40;12.00;99.90
6174;DHT22;3120;48.796;9.796;2023-03-24T03:52:06;12.00;99.90
6174;DHT22;3120;48.796;9.796;2023-03-24T03:54:32;12.00;99.90
6174;DHT22;3120;48.796;9.796;2023-03-24T03:56:59;12.00;99.90
6174;DHT22;3120;48.796;9.796;2023-03-24T03:59:28;12.00;99.90
6174;DHT22;3120;48.796;9.796;2023-03-24T04:01:54;12.10;99.90
6174;DHT22;3120;48.796;9.796;2023-03-24T04:07:14;12.10;99.90
6174;DHT22;3120;48.796;9.796;2023-03-24T04:18:14;12.10;99.90
6174;DHT22;3120;48.796;9.796;2023-03-24T04:20:56;12.10;99.90
6174;DHT22;3120;48.796;9.796;2023-03-24T04:29:17;12.20;99.90
6174;DHT22;3120;48.796;9.796;2023-03-24T04:34:24;12.20;99.90
6174;DHT22;3120;48.796;9.796;2023-03-24T04:37:15;12.20;99.90
6174;DHT22;3120;48.796;9.796;2023-03-24T04:39:44;12.20;99.90
6174;DHT22;3120;48.796;9.796;2023-03-24T04:42:17;12.20;99.90
6174;DHT22;3120;48.796;9.796;2023-03-24T04:44:44;12.20;99.90
6174;DHT22;3120;48.796;9.796;2023-03-24T04:47:10;12.20;99.90
6174;DHT22;3120;48.796;9.796;2023-03-24T04:49:40;12.20;99.90
6174;DHT22;3120;48.796;9.796;2023-03-24T04:52:06;12.70;99.90
6174;DHT22;3120;48.796;9.796;2023-03-24T04:54:32;12.10;99.90
6174;DHT22;3120;48.796;9.796;2023-03-24T04:57:00;12.20;99.90
6174;DHT22;3120;48.796;9.796;2023-03-24T04:59:29;12.20;99.90
6174;DHT22;3120;48.796;9.796;2023-03-24T05:01:58;12.20;99.90
6174;DHT22;3120;48.796;9.796;2023-03-24T05:04:25;12.20;99.90
6174;DHT22;3120;48.796;9.796;2023-03-24T05:06:52;12.20;99.90
6174;DHT22;3120;48.796;9.796;2023-03-24T05:09:20;12.20;99.90
6174;DHT22;3120;48.796;9.796;2023-03-24T05:11:46;12.60;99.90
6174;DHT22;3120;48.796;9.796;2023-03-24T05:14:12;12.30;99.90
6174;DHT22;3120;48.796;9.796;2023-03-24T05:16:38;12.40;99.90
6174;DHT22;3120;48.796;9.796;2023-03-24T05:19:04;12.50;99.90
6174;DHT22;3120;48.796;9.796;2023-03-24T05:21:30;12.50;99.90
6174;DHT22;3120;48.796;9.796;2023-03-24T05:23:56;12.50;99.90
6174;DHT22;3120;48.796;9.796;2023-03-24T05:26:22;12.50;99.90
6174;DHT22;3120;48.796;9.796;2023-03-24T05:28:47;12.50;99.90
6174;DHT22;3120;48.796;9.796;2023-03-24T05:31:13;13.00;99.90
6174;DHT22;3120;48.796;9.796;2023-03-24T05:33:39;12.60;99.90
6174;DHT22;3120;48.796;9.796;2023-03-24T05:36:05;12.50;99.90
6174;DHT22;3120;48.796;9.796;2023-03-24T05:38:30;12.50;99.90
6174;DHT22;3120;48.796;9.796;2023-03-24T05:40:57;12.50;99.90
6174;DHT22;3120;48.796;9.796;2023-03-24T05:43:24;12.50;99.90
6174;DHT22;3120;48.796;9.796;2023-03-24T05:45:49;12.60;99.90
6174;DHT22;3120;48.796;9.796;2023-03-24T05:48:15;12.80;99.90
6174;DHT22;3120;48.796;9.796;2023-03-24T05:50:41;12.60;99.90
6174;DHT22;3120;48.796;9.796;2023-03-24T05:53:06;12.60;99.90
6174;DHT22;3120;48.796;9.796;2023-03-24T05:55:32;12.60;99.90
6174;DHT22;3120;48.796;9.796;2023-03-24T05:57:57;12.70;99.50
6174;DHT22;3120;48.796;9.796;2023-03-24T06:00:27;13.50;26.30
6174;DHT22;3120;48.796;9.796;2023-03-24T06:02:53;13.10;58.10
6174;DHT22;3120;48.796;9.796;2023-03-24T06:05:19;13.10;90.30
6174;DHT22;3120;48.796;9.796;2023-03-24T06:07:45;14.00;97.40
6174;DHT22;3120;48.796;9.796;2023-03-24T06:10:11;13.30;99.90
6174;DHT22;3120;48.796;9.796;2023-03-24T06:12:40;13.00;99.90
6174;DHT22;3120;48.796;9.796;2023-03-24T06:15:07;12.80;99.90
6174;DHT22;3120;48.796;9.796;2023-03-24T06:17:33;12.80;99.90
6174;DHT22;3120;48.796;9.796;2023-03-24T06:19:59;13.50;99.90
6174;DHT22;3120;48.796;9.796;2023-03-24T06:22:32;14.70;99.90
6174;DHT22;3120;48.796;9.796;2023-03-24T06:24:58;14.20;99.90
6174;DHT22;3120;48.796;9.796;2023-03-24T06:27:25;12.50;99.90
6174;DHT22;3120;48.796;9.796;2023-03-24T06:29:58;12.50;99.90
6174;DHT22;3120;48.796;9.796;2023-03-24T06:32:24;13.40;99.90
6174;DHT22;3120;48.796;9.796;2023-03-24T06:34:50;13.90;99.90
6174;DHT22;3120;48.796;9.796;2023-03-24T06:37:23;14.50;99.90
6174;DHT22;3120;48.796;9.796;2023-03-24T07:34:11;12.90;99.90
6174;DHT22;3120;48.796;9.796;2023-03-24T07:36:37;12.80;99.90
6174;DHT22;3120;48.796;9.796;2023-03-24T07:39:03;13.40;99.90
6174;DHT22;3120;48.796;9.796;2023-03-24T07:41:34;12.80;99.90
6174;DHT22;3120;48.796;9.796;2023-03-24T07:44:02;12.70;99.90
6174;DHT22;3120;48.796;9.796;2023-03-24T07:46:31;11.20;99.90
6174;DHT22;3120;48.796;9.796;2023-03-24T07:48:57;14.00;99.90
6174;DHT22;3120;48.796;9.796;2023-03-24T07:51:22;13.20;99.90
6174;DHT22;3120;48.796;9.796;2023-03-24T07:53:50;13.80;99.90
6174;DHT22;3120;48.796;9.796;2023-03-24T07:56:18;15.20;99.90
6174;DHT22;3120;48.796;9.796;2023-03-24T07:58:54;12.50;99.90
6174;DHT22;3120;48.796;9.796;2023-03-24T08:01:26;12.20;99.90
6174;DHT22;3120;48.796;9.796;2023-03-24T08:03:53;14.10;99.90
6174;DHT22;3120;48.796;9.796;2023-03-24T08:06:23;12.30;99.90
6174;DHT22;3120;48.796;9.796;2023-03-24T08:08:55;12.40;99.90
6174;DHT22;3120;48.796;9.796;2023-03-24T08:11:30;11.20;99.90
6174;DHT22;3120;48.796;9.796;2023-03-24T08:14:16;12.00;99.90
6174;DHT22;3120;48.796;9.796;2023-03-24T08:16:42;12.60;99.90
6174;DHT22;3120;48.796;9.796;2023-03-24T08:19:13;14.50;99.90
6174;DHT22;3120;48.796;9.796;2023-03-24T08:21:42;14.90;99.90
6174;DHT22;3120;48.796;9.796;2023-03-24T08:24:08;12.00;99.90
6174;DHT22;3120;48.796;9.796;2023-03-24T08:49:46;12.40;99.90
6174;DHT22;3120;48.796;9.796;2023-03-24T08:52:12;14.80;99.90
6174;DHT22;3120;48.796;9.796;2023-03-24T08:54:37;15.20;99.90
6174;DHT22;3120;48.796;9.796;2023-03-24T08:57:03;12.50;99.90
6174;DHT22;3120;48.796;9.796;2023-03-24T08:59:29;13.90;99.90
6174;DHT22;3120;48.796;9.796;2023-03-24T09:01:54;12.60;99.90
6174;DHT22;3120;48.796;9.796;2023-03-24T09:04:20;13.70;99.90
6174;DHT22;3120;48.796;9.796;2023-03-24T09:06:46;14.90;99.90
6174;DHT22;3120;48.796;9.796;2023-03-24T09:09:11;14.40;99.90
6174;DHT22;3120;48.796;9.796;2023-03-24T09:11:37;14.40;99.90
6174;DHT22;3120;48.796;9.796;2023-03-24T09:14:06;12.90;99.90
6174;DHT22;3120;48.796;9.796;2023-03-24T09:16:32;15.60;99.90
6174;DHT22;3120;48.796;9.796;2023-03-24T09:18:58;14.10;99.90
6174;DHT22;3120;48.796;9.796;2023-03-24T09:21:24;15.20;99.90
6174;DHT22;3120;48.796;9.796;2023-03-24T09:23:50;14.60;99.90
6174;DHT22;3120;48.796;9.796;2023-03-24T09:26:16;14.50;99.90
6174;DHT22;3120;48.796;9.796;2023-03-24T09:28:41;15.00;99.90
6174;DHT22;3120;48.796;9.796;2023-03-24T09:31:07;13.20;99.90
6174;DHT22;3120;48.796;9.796;2023-03-24T09:33:32;14.90;99.90
6174;DHT22;3120;48.796;9.796;2023-03-24T09:36:00;14.80;99.90
6174;DHT22;3120;48.796;9.796;2023-03-24T09:38:27;15.10;99.90
6174;DHT22;3120;48.796;9.796;2023-03-24T09:40:55;14.70;99.90
6174;DHT22;3120;48.796;9.796;2023-03-24T09:45:59;13.50;99.90
6174;DHT22;3120;48.796;9.796;2023-03-24T09:48:36;14.50;99.90
6174;DHT22;3120;48.796;9.796;2023-03-24T09:51:14;13.70;99.90
6174;DHT22;3120;48.796;9.796;2023-03-24T09:56:26;15.50;99.90
6174;DHT22;3120;48.796;9.796;2023-03-24T09:59:04;16.50;99.90
6174;DHT22;3120;48.796;9.796;2023-03-24T10:01:33;14.00;99.90
6174;DHT22;3120;48.796;9.796;2023-03-24T10:04:00;16.10;99.90
6174;DHT22;3120;48.796;9.796;2023-03-24T10:06:37;14.10;99.90
6174;DHT22;3120;48.796;9.796;2023-03-24T10:14:54;15.70;99.90
6174;DHT22;3120;48.796;9.796;2023-03-24T10:20:39;14.40;99.90
6174;DHT22;3120;48.796;9.796;2023-03-24T10:34:43;15.30;85.20
6174;DHT22;3120;48.796;9.796;2023-03-24T10:37:13;15.50;99.90
6174;DHT22;3120;48.796;9.796;2023-03-24T10:39:39;15.90;77.10
6174;DHT22;3120;48.796;9.796;2023-03-24T10:42:17;17.50;46.90
6174;DHT22;3120;48.796;9.796;2023-03-24T10:44:47;15.90;45.30
6174;DHT22;3120;48.796;9.796;2023-03-24T10:47:17;16.50;1.00
6174;DHT22;3120;48.796;9.796;2023-03-24T10:49:57;18.00;1.00
6174;DHT22;3120;48.796;9.796;2023-03-24T10:52:25;18.10;1.00
6174;DHT22;3120;48.796;9.796;2023-03-24T10:55:02;15.80;1.00
6174;DHT22;3120;48.796;9.796;2023-03-24T10:57:29;15.90;1.00
6174;DHT22;3120;48.796;9.796;2023-03-24T11:02:34;15.90;1.00
6174;DHT22;3120;48.796;9.796;2023-03-24T11:07:41;15.80;1.00
6174;DHT22;3120;48.796;9.796;2023-03-24T11:15:31;15.80;99.90
6174;DHT22;3120;48.796;9.796;2023-03-24T11:18:17;15.70;1.00
6174;DHT22;3120;48.796;9.796;2023-03-24T11:20:52;15.70;1.00
6174;DHT22;3120;48.796;9.796;2023-03-24T11:28:29;15.70;19.00
6174;DHT22;3120;48.796;9.796;2023-03-24T11:31:06;15.90;99.90
6174;DHT22;3120;48.796;9.796;2023-03-24T11:33:34;15.70;1.00
6174;DHT22;3120;48.796;9.796;2023-03-24T11:36:05;16.40;99.00
6174;DHT22;3120;48.796;9.796;2023-03-24T11:38:34;15.60;1.00
6174;DHT22;3120;48.796;9.796;2023-03-24T11:41:01;14.80;1.00
6174;DHT22;3120;48.796;9.796;2023-03-24T11:43:30;14.60;99.00
6174;DHT22;3120;48.796;9.796;2023-03-24T11:46:17;15.70;99.90
6174;DHT22;3120;48.796;9.796;2023-03-24T11:48:54;16.90;1.00
6174;DHT22;3120;48.796;9.796;2023-03-24T11:51:37;16.10;99.90
6174;DHT22;3120;48.796;9.796;2023-03-24T11:54:12;17.60;1.00
6174;DHT22;3120;48.796;9.796;2023-03-24T11:57:10;17.90;1.00
6174;DHT22;3120;48.796;9.796;2023-03-24T11:59:51;16.50;47.70
6174;DHT22;3120;48.796;9.796;2023-03-24T12:02:45;18.30;99.90
6174;DHT22;3120;48.796;9.796;2023-03-24T12:05:55;16.80;1.00
6174;DHT22;3120;48.796;9.796;2023-03-24T12:08:52;16.80;1.00
6174;DHT22;3120;48.796;9.796;2023-03-24T12:11:45;16.60;1.00
6174;DHT22;3120;48.796;9.796;2023-03-24T12:15:02;16.50;59.30
6174;DHT22;3120;48.796;9.796;2023-03-24T12:17:09;16.40;99.90
6174;DHT22;3120;48.796;9.796;2023-03-24T12:20:02;16.40;99.90
6174;DHT22;3120;48.796;9.796;2023-03-24T12:22:59;16.30;1.00
6174;DHT22;3120;48.796;9.796;2023-03-24T12:42:45;16.10;1.00
6174;DHT22;3120;48.796;9.796;2023-03-24T12:51:12;16.20;99.90
6174;DHT22;3120;48.796;9.796;2023-03-24T12:56:41;16.40;99.90
6174;DHT22;3120;48.796;9.796;2023-03-24T13:02:24;16.30;99.90
6174;DHT22;3120;48.796;9.796;2023-03-24T13:04:56;16.40;32.20
6174;DHT22;3120;48.796;9.796;2023-03-24T13:07:25;16.30;99.90
6174;DHT22;3120;48.796;9.796;2023-03-24T13:10:00;16.30;1.00
6174;DHT22;3120;48.796;9.796;2023-03-24T13:12:36;16.20;1.00
6174;DHT22;3120;48.796;9.796;2023-03-24T13:20:20;15.60;99.90
6174;DHT22;3120;48.796;9.796;2023-03-24T13:22:46;15.90;99.90
6174;DHT22;3120;48.796;9.796;2023-03-24T13:28:02;15.60;99.90
6174;DHT22;3120;48.796;9.796;2023-03-24T13:33:39;15.70;99.90
6174;DHT22;3120;48.796;9.796;2023-03-24T13:36:41;15.80;22.30
6174;DHT22;3120;48.796;9.796;2023-03-24T13:39:17;15.90;1.00
6174;DHT22;3120;48.796;9.796;2023-03-24T13:41:49;16.00;99.90
6174;DHT22;3120;48.796;9.796;2023-03-24T13:44:19;15.90;99.90
6174;DHT22;3120;48.796;9.796;2023-03-24T13:47:11;15.90;99.90
6174;DHT22;3120;48.796;9.796;2023-03-24T13:49:39;15.80;83.50
6174;DHT22;3120;48.796;9.796;2023-03-24T13:54:47;15.60;99.90
6174;DHT22;3120;48.796;9.796;2023-03-24T13:57:16;15.50;99.90
6174;DHT22;3120;48.796;9.796;2023-03-24T14:04:13;15.30;99.90
6174;DHT22;3120;48.796;9.796;2023-03-24T14:06:00;15.30;99.90
6174;DHT22;3120;48.796;9.796;2023-03-24T14:10:59;15.20;99.90
6174;DHT22;3120;48.796;9.796;2023-03-24T14:13:36;15.10;99.90
6174;DHT22;3120;48.796;9.796;2023-03-24T14:16:35;15.20;99.90
6174;DHT22;3120;48.796;9.796;2023-03-24T14:19:23;15.00;1.00
6174;DHT22;3120;48.796;9.796;2023-03-24T14:21:57;15.00;1.00
6174;DHT22;3120;48.796;9.796;2023-03-24T14:24:28;15.00;1.00
6174;DHT22;3120;48.796;9.796;2023-03-24T14:26:54;14.90;99.90
6174;DHT22;3120;48.796;9.796;2023-03-24T14:29:50;14.70;58.10
6174;DHT22;3120;48.796;9.796;2023-03-24T14:32:18;15.80;1.00
6174;DHT22;3120;48.796;9.796;2023-03-24T14:38:03;13.00;99.90
6174;DHT22;3120;48.796;9.796;2023-03-24T14:40:40;12.40;99.90
6174;DHT22;3120;48.796;9.796;2023-03-24T14:46:31;11.80;99.90
6174;DHT22;3120;48.796;9.796;2023-03-24T14:54:15;11.70;99.90
6174;DHT22;3120;48.796;9.796;2023-03-24T14:56:43;11.70;99.90
6174;DHT22;3120;48.796;9.796;2023-03-24T14:59:34;11.60;99.90
6174;DHT22;3120;48.796;9.796;2023-03-24T15:02:36;11.50;99.90
6174;DHT22;3120;48.796;9.796;2023-03-24T15:10:18;11.20;99.90
6174;DHT22;3120;48.796;9.796;2023-03-24T15:12:48;12.80;99.90
6174;DHT22;3120;48.796;9.796;2023-03-24T15:15:17;12.60;99.90
6174;DHT22;3120;48.796;9.796;2023-03-24T15:17:43;10.50;99.90
6174;DHT22;3120;48.796;9.796;2023-03-24T15:20:39;12.60;99.90
6174;DHT22;3120;48.796;9.796;2023-03-24T15:23:17;11.70;99.90
6174;DHT22;3120;48.796;9.796;2023-03-24T15:25:43;11.10;99.90
6174;DHT22;3120;48.796;9.796;2023-03-24T15:28:18;11.00;99.90
6174;DHT22;3120;48.796;9.796;2023-03-24T15:30:44;11.80;99.90
6174;DHT22;3120;48.796;9.796;2023-03-24T15:33:11;11.70;99.90
6174;DHT22;3120;48.796;9.796;2023-03-24T15:35:38;12.50;99.90
6174;DHT22;3120;48.796;9.796;2023-03-24T15:38:04;12.90;99.90
6174;DHT22;3120;48.796;9.796;2023-03-24T15:40:36;12.50;99.90
6174;DHT22;3120;48.796;9.796;2023-03-24T15:43:06;11.00;99.90
6174;DHT22;3120;48.796;9.796;2023-03-24T15:45:48;12.40;99.90
6174;DHT22;3120;48.796;9.796;2023-03-24T15:48:23;9.90;99.90
6174;DHT22;3120;48.796;9.796;2023-03-24T15:51:13;12.70;99.90
6174;DHT22;3120;48.796;9.796;2023-03-24T15:53:52;11.10;99.90
6174;DHT22;3120;48.796;9.796;2023-03-24T15:59:47;11.10;99.90
6174;DHT22;3120;48.796;9.796;2023-03-24T16:02:40;11.00;99.90
6174;DHT22;3120;48.796;9.796;2023-03-24T16:07:38;11.00;99.90
6174;DHT22;3120;48.796;9.796;2023-03-24T16:10:06;11.00;99.90
6174;DHT22;3120;48.796;9.796;2023-03-24T16:12:36;11.00;99.90
6174;DHT22;3120;48.796;9.796;2023-03-24T16:15:02;11.00;99.90
6174;DHT22;3120;48.796;9.796;2023-03-24T16:17:30;10.90;99.90
6174;DHT22;3120;48.796;9.796;2023-03-24T16:19:59;10.90;99.90
6174;DHT22;3120;48.796;9.796;2023-03-24T16:22:33;10.70;99.90
6174;DHT22;3120;48.796;9.796;2023-03-24T16:24:58;11.40;99.90
6174;DHT22;3120;48.796;9.796;2023-03-24T16:27:25;10.80;99.90
6174;DHT22;3120;48.796;9.796;2023-03-24T16:29:51;10.80;99.90
6174;DHT22;3120;48.796;9.796;2023-03-24T16:32:17;10.80;99.90
6174;DHT22;3120;48.796;9.796;2023-03-24T16:34:42;12.20;99.90
6174;DHT22;3120;48.796;9.796;2023-03-24T16:37:11;12.50;99.90
6174;DHT22;3120;48.796;9.796;2023-03-24T16:39:37;10.70;99.90
6174;DHT22;3120;48.796;9.796;2023-03-24T16:42:03;10.60;99.90
6174;DHT22;3120;48.796;9.796;2023-03-24T16:44:32;10.70;99.90
6174;DHT22;3120;48.796;9.796;2023-03-24T16:46:58;10.00;99.90
6174;DHT22;3120;48.796;9.796;2023-03-24T16:49:24;10.50;99.90
6174;DHT22;3120;48.796;9.796;2023-03-24T16:51:52;12.20;99.90
6174;DHT22;3120;48.796;9.796;2023-03-24T16:54:18;12.40;99.90
6174;DHT22;3120;48.796;9.796;2023-03-24T16:56:45;10.60;99.90
6174;DHT22;3120;48.796;9.796;2023-03-24T16:59:10;11.60;99.90
6174;DHT22;3120;48.796;9.796;2023-03-24T17:01:43;12.00;99.90
6174;DHT22;3120;48.796;9.796;2023-03-24T17:04:16;10.70;99.90
6174;DHT22;3120;48.796;9.796;2023-03-24T17:06:44;10.70;99.90
6174;DHT22;3120;48.796;9.796;2023-03-24T17:09:11;11.20;99.90
6174;DHT22;3120;48.796;9.796;2023-03-24T17:11:42;10.80;99.90
6174;DHT22;3120;48.796;9.796;2023-03-24T17:14:08;11.90;99.90
6174;DHT22;3120;48.796;9.796;2023-03-24T17:16:41;10.80;99.90
6174;DHT22;3120;48.796;9.796;2023-03-24T17:19:11;10.80;99.90
6174;DHT22;3120;48.796;9.796;2023-03-24T17:24:13;10.70;99.90
6174;DHT22;3120;48.796;9.796;2023-03-24T17:26:40;10.70;99.90
6174;DHT22;3120;48.796;9.796;2023-03-24T17:29:16;10.70;99.90
6174;DHT22;3120;48.796;9.796;2023-03-24T17:31:41;11.70;99.90
6174;DHT22;3120;48.796;9.796;2023-03-24T17:34:10;10.60;99.90
6174;DHT22;3120;48.796;9.796;2023-03-24T17:36:36;10.50;99.90
6174;DHT22;3120;48.796;9.796;2023-03-24T17:39:02;10.70;99.90
6174;DHT22;3120;48.796;9.796;2023-03-24T17:41:29;10.40;99.90
6174;DHT22;3120;48.796;9.796;2023-03-24T17:43:55;10.60;99.90
6174;DHT22;3120;48.796;9.796;2023-03-24T17:46:21;11.20;99.90
6174;DHT22;3120;48.796;9.796;2023-03-24T17:48:47;10.40;99.90
6174;DHT22;3120;48.796;9.796;2023-03-24T17:51:13;10.30;99.90
6174;DHT22;3120;48.796;9.796;2023-03-24T17:53:39;10.30;99.90
6174;DHT22;3120;48.796;9.796;2023-03-24T17:56:06;10.30;99.90
6174;DHT22;3120;48.796;9.796;2023-03-24T17:58:33;10.10;99.90
6174;DHT22;3120;48.796;9.796;2023-03-24T18:01:01;11.70;99.90
6174;DHT22;3120;48.796;9.796;2023-03-24T18:03:31;10.00;99.90
6174;DHT22;3120;48.796;9.796;2023-03-24T18:06:15;10.00;99.90
6174;DHT22;3120;48.796;9.796;2023-03-24T18:08:41;10.00;99.90
6174;DHT22;3120;48.796;9.796;2023-03-24T18:11:10;10.00;99.90
6174;DHT22;3120;48.796;9.796;2023-03-24T18:16:06;10.00;99.90
6174;DHT22;3120;48.796;9.796;2023-03-24T18:18:33;10.00;99.90
6174;DHT22;3120;48.796;9.796;2023-03-24T18:21:00;10.00;99.90
6174;DHT22;3120;48.796;9.796;2023-03-24T18:23:26;10.00;99.90
6174;DHT22;3120;48.796;9.796;2023-03-24T18:25:59;10.20;99.90
6174;DHT22;3120;48.796;9.796;2023-03-24T18:28:25;10.30;99.90
6174;DHT22;3120;48.796;9.796;2023-03-24T18:30:51;9.90;99.90
6174;DHT22;3120;48.796;9.796;2023-03-24T18:33:17;9.90;99.90
6174;DHT22;3120;48.796;9.796;2023-03-24T18:35:49;9.80;99.90
6174;DHT22;3120;48.796;9.796;2023-03-24T18:38:14;9.80;99.90
6174;DHT22;3120;48.796;9.796;2023-03-24T18:40:45;9.70;99.90
6174;DHT22;3120;48.796;9.796;2023-03-24T18:43:11;9.60;99.90
6174;DHT22;3120;48.796;9.796;2023-03-24T18:45:37;9.60;99.90
6174;DHT22;3120;48.796;9.796;2023-03-24T18:48:03;9.60;99.90
6174;DHT22;3120;48.796;9.796;2023-03-24T18:50:29;9.60;99.90
6174;DHT22;3120;48.796;9.796;2023-03-24T18:52:54;9.60;99.90
6174;DHT22;3120;48.796;9.796;2023-03-24T18:55:21;9.60;99.90
6174;DHT22;3120;48.796;9.796;2023-03-24T18:57:48;9.70;99.90
6174;DHT22;3120;48.796;9.796;2023-03-24T19:00:14;9.40;99.90
6174;DHT22;3120;48.796;9.796;2023-03-24T19:02:40;9.40;99.90
6174;DHT22;3120;48.796;9.796;2023-03-24T19:05:06;9.40;99.90
6174;DHT22;3120;48.796;9.796;2023-03-24T19:07:31;9.30;99.90
6174;DHT22;3120;48.796;9.796;2023-03-24T19:10:09;9.30;99.90
6174;DHT22;3120;48.796;9.796;2023-03-24T19:12:35;9.30;99.90
6174;DHT22;3120;48.796;9.796;2023-03-24T19:15:01;9.30;99.90
6174;DHT22;3120;48.796;9.796;2023-03-24T19:17:27;9.30;99.90
6174;DHT22;3120;48.796;9.796;2023-03-24T19:19:52;9.40;99.90
6174;DHT22;3120;48.796;9.796;2023-03-24T19:22:23;9.40;99.90
6174;DHT22;3120;48.796;9.796;2023-03-24T19:24:48;9.30;99.90
6174;DHT22;3120;48.796;9.796;2023-03-24T19:27:14;9.30;99.90
6174;DHT22;3120;48.796;9.796;2023-03-24T19:29:40;9.30;99.90
6174;DHT22;3120;48.796;9.796;2023-03-24T19:32:05;9.20;99.90
6174;DHT22;3120;48.796;9.796;2023-03-24T19:34:31;10.60;99.90
6174;DHT22;3120;48.796;9.796;2023-03-24T19:36:59;9.20;99.90
6174;DHT22;3120;48.796;9.796;2023-03-24T19:42:38;9.20;99.90
6174;DHT22;3120;48.796;9.796;2023-03-24T19:45:15;9.10;99.90
6174;DHT22;3120;48.796;9.796;2023-03-24T19:47:43;9.10;99.90
6174;DHT22;3120;48.796;9.796;2023-03-24T19:56:41;9.00;99.90
6174;DHT22;3120;48.796;9.796;2023-03-24T19:59:15;9.00;99.90
6174;DHT22;3120;48.796;9.796;2023-03-24T20:01:48;9.00;99.90
6174;DHT22;3120;48.796;9.796;2023-03-24T20:04:13;9.00;99.90
6174;DHT22;3120;48.796;9.796;2023-03-24T20:06:39;8.90;99.90
6174;DHT22;3120;48.796;9.796;2023-03-24T20:09:08;8.90;99.90
6174;DHT22;3120;48.796;9.796;2023-03-24T20:11:33;8.80;99.90
6174;DHT22;3120;48.796;9.796;2023-03-24T20:13:59;8.70;99.90
6174;DHT22;3120;48.796;9.796;2023-03-24T20:16:25;8.70;99.90
6174;DHT22;3120;48.796;9.796;2023-03-24T20:18:51;8.70;99.90
6174;DHT22;3120;48.796;9.796;2023-03-24T20:21:19;8.70;99.90
6174;DHT22;3120;48.796;9.796;2023-03-24T20:23:50;8.70;99.90
6174;DHT22;3120;48.796;9.796;2023-03-24T20:26:16;8.60;99.90
6174;DHT22;3120;48.796;9.796;2023-03-24T20:28:42;8.60;99.90
6174;DHT22;3120;48.796;9.796;2023-03-24T20:31:09;8.50;99.90
6174;DHT22;3120;48.796;9.796;2023-03-24T20:33:35;8.50;99.90
6174;DHT22;3120;48.796;9.796;2023-03-24T20:36:01;8.50;99.90
6174;DHT22;3120;48.796;9.796;2023-03-24T20:38:28;8.50;99.90
6174;DHT22;3120;48.796;9.796;2023-03-24T20:41:13;8.40;99.90
6174;DHT22;3120;48.796;9.796;2023-03-24T20:43:39;8.50;99.90
6174;DHT22;3120;48.796;9.796;2023-03-24T20:46:07;8.50;99.90
6174;DHT22;3120;48.796;9.796;2023-03-24T20:48:34;8.40;99.90